sensor_id;sensor_type;location;lat;lon;timestamp;P1;durP1;ratioP1;P2;durP2;ratioP2
69716;SDS011;67420;46.144;19.666;2023-12-29T00:08:52;16.17;;;12.30;;
69716;SDS011;67420;46.144;19.666;2023-12-29T00:18:54;15.38;;;12.00;;
69716;SDS011;67420;46.144;19.666;2023-12-29T00:28:57;16.45;;;11.88;;
69716;SDS011;67420;46.144;19.666;2023-12-29T00:38:59;15.98;;;12.27;;
69716;SDS011;67420;46.144;19.666;2023-12-29T00:49:01;17.63;;;12.07;;
69716;SDS011;67420;46.144;19.666;2023-12-29T00:59:03;15.18;;;12.07;;
69716;SDS011;67420;46.144;19.666;2023-12-29T01:09:06;15.75;;;11.05;;
69716;SDS011;67420;46.144;19.666;2023-12-29T01:19:10;14.65;;;11.45;;
69716;SDS011;67420;46.144;19.666;2023-12-29T01:29:12;15.02;;;11.32;;
69716;SDS011;67420;46.144;19.666;2023-12-29T01:39:15;15.10;;;10.80;;
69716;SDS011;67420;46.144;19.666;2023-12-29T01:49:19;13.07;;;10.40;;
69716;SDS011;67420;46.144;19.666;2023-12-29T01:59:22;13.52;;;10.18;;
69716;SDS011;67420;46.144;19.666;2023-12-29T02:09:27;12.52;;;9.77;;
69716;SDS011;67420;46.144;19.666;2023-12-29T02:29:53;13.45;;;10.20;;
69716;SDS011;67420;46.144;19.666;2023-12-29T02:40:15;12.93;;;9.82;;
69716;SDS011;67420;46.144;19.666;2023-12-29T02:50:18;14.30;;;10.20;;
69716;SDS011;67420;46.144;19.666;2023-12-29T03:00:20;12.88;;;10.07;;
69716;SDS011;67420;46.144;19.666;2023-12-29T03:10:22;11.70;;;9.18;;
69716;SDS011;67420;46.144;19.666;2023-12-29T03:20:24;12.35;;;9.43;;
69716;SDS011;67420;46.144;19.666;2023-12-29T03:30:26;12.05;;;8.98;;
69716;SDS011;67420;46.144;19.666;2023-12-29T03:40:28;11.52;;;9.00;;
69716;SDS011;67420;46.144;19.666;2023-12-29T03:50:30;11.07;;;8.98;;
69716;SDS011;67420;46.144;19.666;2023-12-29T04:00:32;12.32;;;9.07;;
69716;SDS011;67420;46.144;19.666;2023-12-29T04:10:34;9.80;;;8.52;;
69716;SDS011;67420;46.144;19.666;2023-12-29T04:20:36;11.45;;;8.77;;
69716;SDS011;67420;46.144;19.666;2023-12-29T04:30:38;10.75;;;8.75;;
69716;SDS011;67420;46.144;19.666;2023-12-29T04:40:40;11.73;;;8.63;;
69716;SDS011;67420;46.144;19.666;2023-12-29T04:50:42;11.35;;;8.80;;
69716;SDS011;67420;46.144;19.666;2023-12-29T05:00:44;12.10;;;8.90;;
69716;SDS011;67420;46.144;19.666;2023-12-29T05:10:46;13.00;;;9.48;;
69716;SDS011;67420;46.144;19.666;2023-12-29T05:20:49;10.90;;;8.38;;
69716;SDS011;67420;46.144;19.666;2023-12-29T05:30:51;11.35;;;9.05;;
69716;SDS011;67420;46.144;19.666;2023-12-29T05:40:53;11.77;;;9.23;;
69716;SDS011;67420;46.144;19.666;2023-12-29T05:50:55;11.15;;;8.48;;
69716;SDS011;67420;46.144;19.666;2023-12-29T06:00:57;10.48;;;9.02;;
69716;SDS011;67420;46.144;19.666;2023-12-29T06:11:00;12.18;;;9.75;;
69716;SDS011;67420;46.144;19.666;2023-12-29T06:21:02;12.38;;;9.75;;
69716;SDS011;67420;46.144;19.666;2023-12-29T06:31:04;12.63;;;9.80;;
69716;SDS011;67420;46.144;19.666;2023-12-29T06:41:06;12.38;;;10.25;;
69716;SDS011;67420;46.144;19.666;2023-12-29T06:51:09;13.70;;;11.00;;
69716;SDS011;67420;46.144;19.666;2023-12-29T07:01:16;14.48;;;11.57;;
69716;SDS011;67420;46.144;19.666;2023-12-29T07:11:18;14.30;;;11.63;;
69716;SDS011;67420;46.144;19.666;2023-12-29T07:21:20;17.20;;;12.73;;
69716;SDS011;67420;46.144;19.666;2023-12-29T07:31:22;14.02;;;11.55;;
69716;SDS011;67420;46.144;19.666;2023-12-29T07:41:24;15.27;;;12.02;;
69716;SDS011;67420;46.144;19.666;2023-12-29T07:51:26;15.20;;;12.05;;
69716;SDS011;67420;46.144;19.666;2023-12-29T08:01:28;17.33;;;13.45;;
69716;SDS011;67420;46.144;19.666;2023-12-29T08:11:31;16.40;;;12.57;;
69716;SDS011;67420;46.144;19.666;2023-12-29T08:21:33;17.10;;;12.63;;
69716;SDS011;67420;46.144;19.666;2023-12-29T08:31:37;20.92;;;13.73;;
69716;SDS011;67420;46.144;19.666;2023-12-29T08:41:39;16.23;;;12.80;;
69716;SDS011;67420;46.144;19.666;2023-12-29T08:51:41;18.50;;;13.02;;
69716;SDS011;67420;46.144;19.666;2023-12-29T09:01:43;16.88;;;12.25;;
69716;SDS011;67420;46.144;19.666;2023-12-29T09:11:45;16.83;;;12.75;;
69716;SDS011;67420;46.144;19.666;2023-12-29T09:21:48;18.92;;;12.13;;
69716;SDS011;67420;46.144;19.666;2023-12-29T09:31:51;17.48;;;12.55;;
69716;SDS011;67420;46.144;19.666;2023-12-29T09:41:54;18.20;;;12.40;;
69716;SDS011;67420;46.144;19.666;2023-12-29T09:52:02;16.58;;;11.32;;
69716;SDS011;67420;46.144;19.666;2023-12-29T10:02:05;18.23;;;12.40;;
69716;SDS011;67420;46.144;19.666;2023-12-29T10:12:17;15.80;;;11.75;;
69716;SDS011;67420;46.144;19.666;2023-12-29T10:22:21;15.90;;;12.05;;
69716;SDS011;67420;46.144;19.666;2023-12-29T10:32:40;16.07;;;12.10;;
69716;SDS011;67420;46.144;19.666;2023-12-29T10:42:55;17.77;;;11.85;;
69716;SDS011;67420;46.144;19.666;2023-12-29T10:53:10;15.10;;;11.70;;
69716;SDS011;67420;46.144;19.666;2023-12-29T11:03:16;15.98;;;11.35;;
69716;SDS011;67420;46.144;19.666;2023-12-29T11:13:18;15.30;;;11.80;;
69716;SDS011;67420;46.144;19.666;2023-12-29T11:23:21;15.88;;;11.63;;
69716;SDS011;67420;46.144;19.666;2023-12-29T11:33:35;14.85;;;11.55;;
69716;SDS011;67420;46.144;19.666;2023-12-29T11:43:41;15.73;;;11.02;;
69716;SDS011;67420;46.144;19.666;2023-12-29T11:53:43;14.82;;;11.68;;
69716;SDS011;67420;46.144;19.666;2023-12-29T12:03:45;15.43;;;10.82;;
69716;SDS011;67420;46.144;19.666;2023-12-29T12:13:48;14.85;;;11.05;;
69716;SDS011;67420;46.144;19.666;2023-12-29T12:23:50;13.30;;;10.23;;
69716;SDS011;67420;46.144;19.666;2023-12-29T12:33:54;14.25;;;10.65;;
69716;SDS011;67420;46.144;19.666;2023-12-29T12:44:08;15.82;;;11.07;;
69716;SDS011;67420;46.144;19.666;2023-12-29T12:54:15;13.55;;;10.10;;
69716;SDS011;67420;46.144;19.666;2023-12-29T13:04:21;12.63;;;9.68;;
69716;SDS011;67420;46.144;19.666;2023-12-29T13:14:23;12.43;;;9.32;;
69716;SDS011;67420;46.144;19.666;2023-12-29T13:24:27;11.65;;;9.80;;
69716;SDS011;67420;46.144;19.666;2023-12-29T13:44:54;13.55;;;9.40;;
69716;SDS011;67420;46.144;19.666;2023-12-29T13:54:58;13.38;;;10.18;;
69716;SDS011;67420;46.144;19.666;2023-12-29T14:15:34;12.10;;;9.85;;
69716;SDS011;67420;46.144;19.666;2023-12-29T14:25:37;13.05;;;9.63;;
69716;SDS011;67420;46.144;19.666;2023-12-29T14:35:39;12.30;;;9.40;;
69716;SDS011;67420;46.144;19.666;2023-12-29T14:45:41;14.07;;;11.00;;
69716;SDS011;67420;46.144;19.666;2023-12-29T14:55:43;14.45;;;10.23;;
69716;SDS011;67420;46.144;19.666;2023-12-29T15:05:47;16.40;;;10.65;;
69716;SDS011;67420;46.144;19.666;2023-12-29T15:15:48;15.43;;;11.40;;
69716;SDS011;67420;46.144;19.666;2023-12-29T15:25:50;18.20;;;13.75;;
69716;SDS011;67420;46.144;19.666;2023-12-29T15:35:53;18.15;;;12.68;;
69716;SDS011;67420;46.144;19.666;2023-12-29T15:45:55;18.35;;;12.38;;
69716;SDS011;67420;46.144;19.666;2023-12-29T15:55:57;18.08;;;12.35;;
69716;SDS011;67420;46.144;19.666;2023-12-29T16:06:00;17.83;;;11.57;;
69716;SDS011;67420;46.144;19.666;2023-12-29T16:16:06;20.60;;;12.40;;
69716;SDS011;67420;46.144;19.666;2023-12-29T16:26:09;18.60;;;12.35;;
69716;SDS011;67420;46.144;19.666;2023-12-29T16:36:12;22.35;;;13.48;;
69716;SDS011;67420;46.144;19.666;2023-12-29T16:46:15;23.63;;;13.95;;
69716;SDS011;67420;46.144;19.666;2023-12-29T16:56:17;26.10;;;14.10;;
69716;SDS011;67420;46.144;19.666;2023-12-29T17:06:19;22.38;;;14.20;;
69716;SDS011;67420;46.144;19.666;2023-12-29T17:16:22;20.65;;;14.48;;
69716;SDS011;67420;46.144;19.666;2023-12-29T17:26:27;24.40;;;15.43;;
69716;SDS011;67420;46.144;19.666;2023-12-29T17:36:29;20.15;;;14.75;;
69716;SDS011;67420;46.144;19.666;2023-12-29T17:46:31;27.85;;;16.70;;
69716;SDS011;67420;46.144;19.666;2023-12-29T17:56:33;22.67;;;16.15;;
69716;SDS011;67420;46.144;19.666;2023-12-29T18:06:35;24.40;;;17.08;;
69716;SDS011;67420;46.144;19.666;2023-12-29T18:16:40;25.00;;;16.65;;
69716;SDS011;67420;46.144;19.666;2023-12-29T18:26:42;22.88;;;16.20;;
69716;SDS011;67420;46.144;19.666;2023-12-29T18:36:44;22.92;;;16.92;;
69716;SDS011;67420;46.144;19.666;2023-12-29T18:46:46;24.80;;;17.98;;
69716;SDS011;67420;46.144;19.666;2023-12-29T18:56:48;21.40;;;16.42;;
69716;SDS011;67420;46.144;19.666;2023-12-29T19:06:50;22.58;;;16.50;;
69716;SDS011;67420;46.144;19.666;2023-12-29T19:16:52;26.27;;;16.95;;
69716;SDS011;67420;46.144;19.666;2023-12-29T19:26:54;26.55;;;17.63;;
69716;SDS011;67420;46.144;19.666;2023-12-29T19:36:58;23.27;;;16.50;;
69716;SDS011;67420;46.144;19.666;2023-12-29T19:47:01;25.92;;;16.67;;
69716;SDS011;67420;46.144;19.666;2023-12-29T19:57:03;24.73;;;17.60;;
69716;SDS011;67420;46.144;19.666;2023-12-29T20:07:07;26.38;;;17.55;;
69716;SDS011;67420;46.144;19.666;2023-12-29T20:17:09;24.02;;;17.58;;
69716;SDS011;67420;46.144;19.666;2023-12-29T20:27:11;52.67;;;27.27;;
69716;SDS011;67420;46.144;19.666;2023-12-29T20:37:13;37.15;;;22.50;;
69716;SDS011;67420;46.144;19.666;2023-12-29T20:47:15;34.65;;;21.15;;
69716;SDS011;67420;46.144;19.666;2023-12-29T20:57:18;37.50;;;20.52;;
69716;SDS011;67420;46.144;19.666;2023-12-29T21:07:22;36.35;;;21.60;;
69716;SDS011;67420;46.144;19.666;2023-12-29T21:17:25;33.33;;;21.60;;
69716;SDS011;67420;46.144;19.666;2023-12-29T21:27:27;32.13;;;20.80;;
69716;SDS011;67420;46.144;19.666;2023-12-29T21:37:35;27.33;;;19.25;;
69716;SDS011;67420;46.144;19.666;2023-12-29T21:47:37;28.23;;;18.38;;
69716;SDS011;67420;46.144;19.666;2023-12-29T21:57:42;26.98;;;18.30;;
69716;SDS011;67420;46.144;19.666;2023-12-29T22:07:45;25.67;;;17.45;;
69716;SDS011;67420;46.144;19.666;2023-12-29T22:17:47;25.10;;;17.80;;
69716;SDS011;67420;46.144;19.666;2023-12-29T22:27:49;26.88;;;17.50;;
69716;SDS011;67420;46.144;19.666;2023-12-29T22:37:51;23.08;;;16.23;;
69716;SDS011;67420;46.144;19.666;2023-12-29T22:47:53;23.58;;;16.05;;
69716;SDS011;67420;46.144;19.666;2023-12-29T22:57:55;22.40;;;15.32;;
69716;SDS011;67420;46.144;19.666;2023-12-29T23:07:58;22.27;;;15.32;;
69716;SDS011;67420;46.144;19.666;2023-12-29T23:18:01;21.17;;;14.57;;
69716;SDS011;67420;46.144;19.666;2023-12-29T23:28:04;19.10;;;13.95;;
69716;SDS011;67420;46.144;19.666;2023-12-29T23:38:06;16.83;;;13.13;;
69716;SDS011;67420;46.144;19.666;2023-12-29T23:48:11;18.83;;;14.05;;
69716;SDS011;67420;46.144;19.666;2023-12-29T23:58:13;19.40;;;13.35;;
